sensor_id;sensor_type;location;lat;lon;timestamp;pressure;altitude;pressure_sealevel;temperature;humidity
19777;BME280;10047;42.490;26.012;2023-03-03T00:01:19;100569.53;;;6.68;100.00
19777;BME280;10047;42.490;26.012;2023-03-03T00:03:45;100509.81;;;6.46;100.00
19777;BME280;10047;42.490;26.012;2023-03-03T00:06:12;100571.25;;;6.54;100.00
19777;BME280;10047;42.490;26.012;2023-03-03T00:08:38;100556.06;;;6.68;100.00
19777;BME280;10047;42.490;26.012;2023-03-03T00:11:04;100559.38;;;6.85;100.00
19777;BME280;10047;42.490;26.012;2023-03-03T00:13:31;100547.63;;;6.75;100.00
19777;BME280;10047;42.490;26.012;2023-03-03T00:16:24;100558.53;;;6.84;100.00
19777;BME280;10047;42.490;26.012;2023-03-03T00:18:51;100482.94;;;6.32;100.00
19777;BME280;10047;42.490;26.012;2023-03-03T00:23:42;100539.22;;;6.67;100.00
19777;BME280;10047;42.490;26.012;2023-03-03T00:26:20;100530.00;;;6.48;100.00
19777;BME280;10047;42.490;26.012;2023-03-03T00:28:52;100525.75;;;6.66;100.00
19777;BME280;10047;42.490;26.012;2023-03-03T00:31:21;100479.56;;;6.31;100.00
19777;BME280;10047;42.490;26.012;2023-03-03T00:33:51;100524.09;;;6.58;100.00
19777;BME280;10047;42.490;26.012;2023-03-03T00:36:36;100460.28;;;6.10;100.00
19777;BME280;10047;42.490;26.012;2023-03-03T00:39:25;100519.13;;;6.31;100.00
19777;BME280;10047;42.490;26.012;2023-03-03T00:41:51;100456.06;;;6.05;100.00
19777;BME280;10047;42.490;26.012;2023-03-03T00:46:49;100463.63;;;6.11;100.00
19777;BME280;10047;42.490;26.012;2023-03-03T00:49:23;100505.63;;;6.41;100.00
19777;BME280;10047;42.490;26.012;2023-03-03T00:51:51;100440.91;;;6.12;100.00
19777;BME280;10047;42.490;26.012;2023-03-03T00:54:16;100427.50;;;5.97;100.00
19777;BME280;10047;42.490;26.012;2023-03-03T00:56:42;100445.13;;;6.15;100.00
19777;BME280;10047;42.490;26.012;2023-03-03T00:59:07;100430.81;;;6.12;100.00
19777;BME280;10047;42.490;26.012;2023-03-03T01:01:32;100447.63;;;6.27;100.00
19777;BME280;10047;42.490;26.012;2023-03-03T01:03:58;100425.69;;;6.32;100.00
19777;BME280;10047;42.490;26.012;2023-03-03T01:06:23;100414.03;;;6.02;100.00
19777;BME280;10047;42.490;26.012;2023-03-03T01:08:48;100413.16;;;6.12;100.00
19777;BME280;10047;42.490;26.012;2023-03-03T01:11:16;100430.78;;;6.26;100.00
19777;BME280;10047;42.490;26.012;2023-03-03T01:13:45;100422.38;;;6.21;100.00
19777;BME280;10047;42.490;26.012;2023-03-03T01:16:12;100425.75;;;6.14;100.00
19777;BME280;10047;42.490;26.012;2023-03-03T01:18:38;100458.44;;;6.52;100.00
19777;BME280;10047;42.490;26.012;2023-03-03T01:21:06;100462.59;;;6.66;100.00
19777;BME280;10047;42.490;26.012;2023-03-03T01:23:32;100475.31;;;6.47;100.00
19777;BME280;10047;42.490;26.012;2023-03-03T01:25:58;100457.72;;;6.32;100.00
19777;BME280;10047;42.490;26.012;2023-03-03T01:28:23;100450.94;;;6.37;100.00
19777;BME280;10047;42.490;26.012;2023-03-03T01:30:48;100450.09;;;6.39;100.00
19777;BME280;10047;42.490;26.012;2023-03-03T01:33:15;100373.66;;;6.10;100.00
19777;BME280;10047;42.490;26.012;2023-03-03T01:35:46;100454.28;;;6.49;100.00
19777;BME280;10047;42.490;26.012;2023-03-03T01:38:13;100414.81;;;6.21;100.00
19777;BME280;10047;42.490;26.012;2023-03-03T01:40:39;100471.03;;;6.62;100.00
19777;BME280;10047;42.490;26.012;2023-03-03T01:43:04;100461.00;;;6.53;100.00
19777;BME280;10047;42.490;26.012;2023-03-03T01:46:19;100466.84;;;6.54;100.00
19777;BME280;10047;42.490;26.012;2023-03-03T01:48:43;100418.16;;;6.29;100.00
19777;BME280;10047;42.490;26.012;2023-03-03T01:53:50;100445.94;;;6.25;100.00
19777;BME280;10047;42.490;26.012;2023-03-03T01:56:17;100400.59;;;5.93;100.00
19777;BME280;10047;42.490;26.012;2023-03-03T01:58:50;100450.16;;;6.20;100.00
19777;BME280;10047;42.490;26.012;2023-03-03T02:01:25;100443.34;;;6.41;100.00
19777;BME280;10047;42.490;26.012;2023-03-03T02:03:51;100466.09;;;6.41;100.00
19777;BME280;10047;42.490;26.012;2023-03-03T02:06:20;100456.88;;;6.24;100.00
19777;BME280;10047;42.490;26.012;2023-03-03T02:08:53;100469.47;;;6.33;100.00
19777;BME280;10047;42.490;26.012;2023-03-03T02:11:22;100408.19;;;5.84;100.00
19777;BME280;10047;42.490;26.012;2023-03-03T02:13:48;100419.03;;;6.24;100.00
19777;BME280;10047;42.490;26.012;2023-03-03T02:16:13;100424.13;;;6.10;100.00
19777;BME280;10047;42.490;26.012;2023-03-03T02:18:39;100423.25;;;6.16;100.00
19777;BME280;10047;42.490;26.012;2023-03-03T02:21:14;100424.13;;;6.10;100.00
19777;BME280;10047;42.490;26.012;2023-03-03T02:23:51;100471.97;;;6.43;100.00
19777;BME280;10047;42.490;26.012;2023-03-03T02:26:21;100473.69;;;6.34;100.00
19777;BME280;10047;42.490;26.012;2023-03-03T02:28:48;100426.63;;;6.18;100.00
19777;BME280;10047;42.490;26.012;2023-03-03T02:31:17;100481.25;;;6.40;100.00
19777;BME280;10047;42.490;26.012;2023-03-03T02:33:46;100378.72;;;5.83;100.00
19777;BME280;10047;42.490;26.012;2023-03-03T02:36:35;100454.38;;;6.14;100.00
19777;BME280;10047;42.490;26.012;2023-03-03T02:39:11;100466.97;;;6.24;100.00
19777;BME280;10047;42.490;26.012;2023-03-03T02:41:59;100462.81;;;6.04;100.00
19777;BME280;10047;42.490;26.012;2023-03-03T02:44:28;100463.59;;;6.20;100.00
19777;BME280;10047;42.490;26.012;2023-03-03T02:46:55;100436.69;;;6.25;100.00
19777;BME280;10047;42.490;26.012;2023-03-03T02:49:24;100408.09;;;6.19;100.00
19777;BME280;10047;42.490;26.012;2023-03-03T02:51:50;100448.41;;;6.32;100.00
19777;BME280;10047;42.490;26.012;2023-03-03T02:54:18;100467.72;;;6.54;100.00
19777;BME280;10047;42.490;26.012;2023-03-03T02:56:44;100405.59;;;6.16;100.00
19777;BME280;10047;42.490;26.012;2023-03-03T02:59:10;100459.28;;;6.58;100.00
19777;BME280;10047;42.490;26.012;2023-03-03T03:01:36;100481.19;;;6.59;100.00
19777;BME280;10047;42.490;26.012;2023-03-03T03:04:10;100467.69;;;6.60;100.00
19777;BME280;10047;42.490;26.012;2023-03-03T03:06:36;100425.72;;;6.26;100.00
19777;BME280;10047;42.490;26.012;2023-03-03T03:09:03;100455.16;;;6.35;100.00
19777;BME280;10047;42.490;26.012;2023-03-03T03:11:29;100458.44;;;6.52;100.00
19777;BME280;10047;42.490;26.012;2023-03-03T03:13:54;100423.25;;;6.12;100.00
19777;BME280;10047;42.490;26.012;2023-03-03T03:16:20;100420.66;;;6.35;100.00
19777;BME280;10047;42.490;26.012;2023-03-03T03:18:45;100417.34;;;6.21;100.00
19777;BME280;10047;42.490;26.012;2023-03-03T03:21:12;100424.06;;;6.19;100.00
19777;BME280;10047;42.490;26.012;2023-03-03T03:23:39;100468.53;;;6.52;100.00
19777;BME280;10047;42.490;26.012;2023-03-03T03:26:05;100447.59;;;6.38;100.00
19777;BME280;10047;42.490;26.012;2023-03-03T03:28:31;100442.53;;;6.38;100.00
19777;BME280;10047;42.490;26.012;2023-03-03T03:30:57;100418.97;;;6.33;100.00
19777;BME280;10047;42.490;26.012;2023-03-03T03:33:23;100462.66;;;6.54;100.00
19777;BME280;10047;42.490;26.012;2023-03-03T03:35:49;100473.56;;;6.67;100.00
19777;BME280;10047;42.490;26.012;2023-03-03T03:38:14;100464.38;;;6.45;100.00
19777;BME280;10047;42.490;26.012;2023-03-03T03:40:41;100470.28;;;6.42;100.00
19777;BME280;10047;42.490;26.012;2023-03-03T03:43:06;100421.50;;;6.28;100.00
19777;BME280;10047;42.490;26.012;2023-03-03T03:45:32;100419.00;;;6.22;100.00
19777;BME280;10047;42.490;26.012;2023-03-03T03:47:58;100435.81;;;6.26;100.00
19777;BME280;10047;42.490;26.012;2023-03-03T03:50:23;100423.25;;;6.17;100.00
19777;BME280;10047;42.490;26.012;2023-03-03T03:52:49;100481.13;;;6.71;100.00
19777;BME280;10047;42.490;26.012;2023-03-03T03:55:14;100384.63;;;5.95;100.00
19777;BME280;10047;42.490;26.012;2023-03-03T03:57:40;100471.13;;;6.38;100.00
19777;BME280;10047;42.490;26.012;2023-03-03T04:00:07;100422.34;;;6.35;100.00
19777;BME280;10047;42.490;26.012;2023-03-03T04:02:33;100473.63;;;6.49;100.00
19777;BME280;10047;42.490;26.012;2023-03-03T04:04:59;100446.69;;;6.46;100.00
19777;BME280;10047;42.490;26.012;2023-03-03T04:07:24;100469.31;;;6.72;100.00
19777;BME280;10047;42.490;26.012;2023-03-03T04:09:50;100415.63;;;6.31;100.00
19777;BME280;10047;42.490;26.012;2023-03-03T04:12:16;100482.00;;;6.58;100.00
19777;BME280;10047;42.490;26.012;2023-03-03T04:14:41;100438.28;;;6.49;100.00
19777;BME280;10047;42.490;26.012;2023-03-03T04:17:07;100425.69;;;6.40;100.00
19777;BME280;10047;42.490;26.012;2023-03-03T04:19:32;100456.75;;;6.61;100.00
19777;BME280;10047;42.490;26.012;2023-03-03T04:21:57;100421.56;;;6.13;100.00
19777;BME280;10047;42.490;26.012;2023-03-03T04:24:23;100405.63;;;5.81;100.00
19777;BME280;10047;42.490;26.012;2023-03-03T04:26:48;100435.00;;;6.18;100.00
19777;BME280;10047;42.490;26.012;2023-03-03T04:29:14;100464.44;;;6.31;100.00
19777;BME280;10047;42.490;26.012;2023-03-03T04:31:39;100430.03;;;5.97;100.00
19777;BME280;10047;42.490;26.012;2023-03-03T04:34:04;100463.59;;;6.28;100.00
19777;BME280;10047;42.490;26.012;2023-03-03T04:36:30;100416.59;;;5.86;100.00
19777;BME280;10047;42.490;26.012;2023-03-03T04:38:55;100439.22;;;6.19;100.00
19777;BME280;10047;42.490;26.012;2023-03-03T04:41:21;100411.50;;;5.83;100.00
19777;BME280;10047;42.490;26.012;2023-03-03T04:43:47;100457.78;;;6.06;100.00
19777;BME280;10047;42.490;26.012;2023-03-03T04:46:12;100440.94;;;6.11;100.00
19777;BME280;10047;42.490;26.012;2023-03-03T04:48:38;100464.47;;;6.19;100.00
19777;BME280;10047;42.490;26.012;2023-03-03T04:51:03;100423.28;;;6.05;100.00
19777;BME280;10047;42.490;26.012;2023-03-03T04:53:29;100412.38;;;5.91;100.00
19777;BME280;10047;42.490;26.012;2023-03-03T04:55:55;100458.56;;;6.12;100.00
19777;BME280;10047;42.490;26.012;2023-03-03T04:58:21;100457.78;;;5.94;100.00
19777;BME280;10047;42.490;26.012;2023-03-03T05:00:47;100409.00;;;5.90;100.00
19777;BME280;10047;42.490;26.012;2023-03-03T05:03:17;100405.63;;;5.81;100.00
19777;BME280;10047;42.490;26.012;2023-03-03T05:05:45;100399.75;;;5.97;100.00
19777;BME280;10047;42.490;26.012;2023-03-03T05:08:10;100450.16;;;6.15;100.00
19777;BME280;10047;42.490;26.012;2023-03-03T05:10:35;100403.97;;;5.84;100.00
19777;BME280;10047;42.490;26.012;2023-03-03T05:13:01;100456.91;;;6.11;100.00
19777;BME280;10047;42.490;26.012;2023-03-03T05:15:26;100458.56;;;6.25;100.00
19777;BME280;10047;42.490;26.012;2023-03-03T05:17:52;100472.81;;;6.36;100.00
19777;BME280;10047;42.490;26.012;2023-03-03T05:20:18;100456.91;;;6.14;100.00
19777;BME280;10047;42.490;26.012;2023-03-03T05:22:44;100441.78;;;6.05;100.00
19777;BME280;10047;42.490;26.012;2023-03-03T05:25:09;100455.22;;;6.04;100.00
19777;BME280;10047;42.490;26.012;2023-03-03T05:27:36;100470.31;;;6.35;100.00
19777;BME280;10047;42.490;26.012;2023-03-03T05:30:03;100370.31;;;5.93;100.00
19777;BME280;10047;42.490;26.012;2023-03-03T05:32:29;100455.97;;;6.38;100.00
19777;BME280;10047;42.490;26.012;2023-03-03T05:34:54;100444.22;;;6.31;100.00
19777;BME280;10047;42.490;26.012;2023-03-03T05:37:20;100408.16;;;5.99;100.00
19777;BME280;10047;42.490;26.012;2023-03-03T05:39:46;100457.69;;;6.39;100.00
19777;BME280;10047;42.490;26.012;2023-03-03T05:42:12;100398.09;;;5.87;100.00
19777;BME280;10047;42.490;26.012;2023-03-03T05:44:38;100448.44;;;6.35;100.00
19777;BME280;10047;42.490;26.012;2023-03-03T05:47:04;100457.72;;;6.27;100.00
19777;BME280;10047;42.490;26.012;2023-03-03T05:49:40;100401.41;;;6.02;100.00
19777;BME280;10047;42.490;26.012;2023-03-03T05:52:06;100364.44;;;5.91;100.00
19777;BME280;10047;42.490;26.012;2023-03-03T05:54:33;100448.41;;;6.41;100.00
19777;BME280;10047;42.490;26.012;2023-03-03T05:56:59;100392.09;;;6.17;100.00
19777;BME280;10047;42.490;26.012;2023-03-03T05:59:24;100404.78;;;6.06;100.00
19777;BME280;10047;42.490;26.012;2023-03-03T06:01:49;100399.69;;;6.15;100.00
19777;BME280;10047;42.490;26.012;2023-03-03T06:04:15;100414.78;;;6.29;100.00
19777;BME280;10047;42.490;26.012;2023-03-03T06:06:43;100462.63;;;6.65;100.00
19777;BME280;10047;42.490;26.012;2023-03-03T06:09:09;100406.44;;;6.13;100.00
19777;BME280;10047;42.490;26.012;2023-03-03T06:11:34;100455.91;;;6.59;100.00
19777;BME280;10047;42.490;26.012;2023-03-03T06:14:01;100424.00;;;6.42;100.00
19777;BME280;10047;42.490;26.012;2023-03-03T06:16:27;100403.00;;;6.26;100.00
19777;BME280;10047;42.490;26.012;2023-03-03T06:18:52;100397.03;;;6.47;100.00
19777;BME280;10047;42.490;26.012;2023-03-03T06:21:17;100452.56;;;6.57;100.00
19777;BME280;10047;42.490;26.012;2023-03-03T06:23:43;100462.53;;;6.81;100.00
19777;BME280;10047;42.490;26.012;2023-03-03T06:26:08;100465.19;;;6.54;100.00
19777;BME280;10047;42.490;26.012;2023-03-03T06:28:34;100462.66;;;6.59;100.00
19777;BME280;10047;42.490;26.012;2023-03-03T06:30:59;100469.31;;;6.75;100.00
19777;BME280;10047;42.490;26.012;2023-03-03T06:33:25;100464.34;;;6.54;100.00
19777;BME280;10047;42.490;26.012;2023-03-03T06:35:51;100470.88;;;6.98;100.00
19777;BME280;10047;42.490;26.012;2023-03-03T06:38:17;100475.16;;;6.84;100.00
19777;BME280;10047;42.490;26.012;2023-03-03T06:40:42;100473.34;;;7.06;100.00
19777;BME280;10047;42.490;26.012;2023-03-03T06:43:08;100481.00;;;6.92;100.00
19777;BME280;10047;42.490;26.012;2023-03-03T06:45:34;100447.44;;;6.71;100.00
19777;BME280;10047;42.490;26.012;2023-03-03T06:47:59;100419.72;;;6.57;100.00
19777;BME280;10047;42.490;26.012;2023-03-03T06:50:26;100420.53;;;6.62;100.00
19777;BME280;10047;42.490;26.012;2023-03-03T06:53:00;100437.31;;;6.75;100.00
19777;BME280;10047;42.490;26.012;2023-03-03T06:55:26;100428.13;;;6.59;100.00
19777;BME280;10047;42.490;26.012;2023-03-03T06:57:52;100470.72;;;7.24;100.00
19777;BME280;10047;42.490;26.012;2023-03-03T07:00:23;100487.56;;;7.24;100.00
19777;BME280;10047;42.490;26.012;2023-03-03T07:03:00;100431.38;;;6.79;100.00
19777;BME280;10047;42.490;26.012;2023-03-03T07:05:27;100485.06;;;7.18;100.00
19777;BME280;10047;42.490;26.012;2023-03-03T07:07:56;100449.84;;;6.95;100.00
19777;BME280;10047;42.490;26.012;2023-03-03T07:10:23;100488.53;;;7.05;100.00
19777;BME280;10047;42.490;26.012;2023-03-03T07:12:48;100427.31;;;6.57;100.00
19777;BME280;10047;42.490;26.012;2023-03-03T07:15:27;100483.59;;;6.82;100.00
19777;BME280;10047;42.490;26.012;2023-03-03T07:17:55;100485.19;;;7.01;100.00
19777;BME280;10047;42.490;26.012;2023-03-03T07:20:29;100464.13;;;6.97;100.00
19777;BME280;10047;42.490;26.012;2023-03-03T07:22:57;100478.31;;;7.20;100.00
19777;BME280;10047;42.490;26.012;2023-03-03T07:27:52;100471.66;;;7.07;100.00
19777;BME280;10047;42.490;26.012;2023-03-03T07:30:28;100406.78;;;7.09;100.00
19777;BME280;10047;42.490;26.012;2023-03-03T07:32:56;100460.38;;;7.51;100.00
19777;BME280;10047;42.490;26.012;2023-03-03T07:35:38;100463.19;;;7.17;100.00
19777;BME280;10047;42.490;26.012;2023-03-03T07:40:57;100400.09;;;6.98;100.00
19777;BME280;10047;42.490;26.012;2023-03-03T07:43:36;100451.31;;;7.26;100.00
19777;BME280;10047;42.490;26.012;2023-03-03T07:46:44;100438.66;;;7.31;100.00
19777;BME280;10047;42.490;26.012;2023-03-03T07:52:27;100441.13;;;7.34;100.00
19777;BME280;10047;42.490;26.012;2023-03-03T07:54:55;100424.19;;;7.43;100.00
19777;BME280;10047;42.490;26.012;2023-03-03T07:57:36;100440.34;;;7.27;100.00
19777;BME280;10047;42.490;26.012;2023-03-03T08:02:59;100423.16;;;7.67;100.00
19777;BME280;10047;42.490;26.012;2023-03-03T08:05:33;100429.66;;;7.92;100.00
19777;BME280;10047;42.490;26.012;2023-03-03T08:08:14;100411.69;;;8.15;100.00
19777;BME280;10047;42.490;26.012;2023-03-03T08:10:48;100330.78;;;7.25;100.00
19777;BME280;10047;42.490;26.012;2023-03-03T08:15:47;100432.97;;;8.00;100.00
19777;BME280;10047;42.490;26.012;2023-03-03T08:18:21;100434.25;;;7.52;100.00
19777;BME280;10047;42.490;26.012;2023-03-03T08:20:49;100365.91;;;7.58;100.00
19777;BME280;10047;42.490;26.012;2023-03-03T08:23:17;100370.97;;;7.58;100.00
19777;BME280;10047;42.490;26.012;2023-03-03T08:25:42;100383.72;;;7.45;100.00
19777;BME280;10047;42.490;26.012;2023-03-03T08:28:09;100368.66;;;7.33;100.00
19777;BME280;10047;42.490;26.012;2023-03-03T08:30:35;100423.06;;;7.76;100.00
19777;BME280;10047;42.490;26.012;2023-03-03T08:33:01;100441.59;;;7.76;100.00
19777;BME280;10047;42.490;26.012;2023-03-03T08:35:26;100422.13;;;7.84;100.00
19777;BME280;10047;42.490;26.012;2023-03-03T08:37:52;100433.09;;;7.85;100.00
19777;BME280;10047;42.490;26.012;2023-03-03T08:40:17;100431.72;;;7.54;100.00
19777;BME280;10047;42.490;26.012;2023-03-03T08:42:43;100393.19;;;7.25;100.00
19777;BME280;10047;42.490;26.012;2023-03-03T08:45:08;100419.78;;;7.65;100.00
19777;BME280;10047;42.490;26.012;2023-03-03T08:47:34;100385.44;;;7.41;100.00
19777;BME280;10047;42.490;26.012;2023-03-03T08:49:59;100418.72;;;7.90;100.00
19777;BME280;10047;42.490;26.012;2023-03-03T08:52:25;100408.91;;;7.58;100.00
19777;BME280;10047;42.490;26.012;2023-03-03T08:54:51;100376.13;;;7.45;100.00
19777;BME280;10047;42.490;26.012;2023-03-03T08:57:16;100432.34;;;7.75;100.00
19777;BME280;10047;42.490;26.012;2023-03-03T08:59:42;100411.81;;;8.03;100.00
19777;BME280;10047;42.490;26.012;2023-03-03T09:02:07;100413.50;;;8.04;100.00
19777;BME280;10047;42.490;26.012;2023-03-03T09:04:33;100372.41;;;7.80;100.00
19777;BME280;10047;42.490;26.012;2023-03-03T09:06:58;100404.47;;;7.78;100.00
19777;BME280;10047;42.490;26.012;2023-03-03T09:09:23;100349.13;;;7.47;100.00
19777;BME280;10047;42.490;26.012;2023-03-03T09:11:49;100373.34;;;7.72;100.00
19777;BME280;10047;42.490;26.012;2023-03-03T09:14:17;100366.59;;;7.74;100.00
19777;BME280;10047;42.490;26.012;2023-03-03T09:16:51;100404.50;;;7.77;100.00
19777;BME280;10047;42.490;26.012;2023-03-03T09:19:29;100416.72;;;8.19;100.00
19777;BME280;10047;42.490;26.012;2023-03-03T09:21:59;100351.97;;;8.00;100.00
19777;BME280;10047;42.490;26.012;2023-03-03T09:24:27;100412.69;;;7.99;100.00
19777;BME280;10047;42.490;26.012;2023-03-03T09:26:55;100395.06;;;7.93;100.00
19777;BME280;10047;42.490;26.012;2023-03-03T09:29:29;100313.63;;;7.57;100.00
19777;BME280;10047;42.490;26.012;2023-03-03T09:35:33;100408.34;;;8.13;100.00
19777;BME280;10047;42.490;26.012;2023-03-03T09:41:02;100417.13;;;7.78;100.00
19777;BME280;10047;42.490;26.012;2023-03-03T09:43:47;100404.25;;;8.01;100.00
19777;BME280;10047;42.490;26.012;2023-03-03T09:46:28;100393.28;;;8.01;100.00
19777;BME280;10047;42.490;26.012;2023-03-03T09:54:58;100393.94;;;8.18;100.00
19777;BME280;10047;42.490;26.012;2023-03-03T09:57:50;100389.84;;;8.05;100.00
19777;BME280;10047;42.490;26.012;2023-03-03T10:05:58;100390.81;;;7.96;100.00
19777;BME280;10047;42.490;26.012;2023-03-03T10:20:11;100371.09;;;8.25;100.00
19777;BME280;10047;42.490;26.012;2023-03-03T10:25:48;100338.41;;;8.04;100.00
19777;BME280;10047;42.490;26.012;2023-03-03T10:39:31;100287.84;;;7.98;100.00
19777;BME280;10047;42.490;26.012;2023-03-03T10:45:11;100339.09;;;8.15;100.00
19777;BME280;10047;42.490;26.012;2023-03-03T10:50:58;100317.66;;;8.42;100.00
19777;BME280;10047;42.490;26.012;2023-03-03T10:53:38;100297.72;;;8.16;100.00
19777;BME280;10047;42.490;26.012;2023-03-03T10:56:33;100315.88;;;8.48;100.00
19777;BME280;10047;42.490;26.012;2023-03-03T11:01:44;100264.72;;;8.25;100.00
19777;BME280;10047;42.490;26.012;2023-03-03T11:43:50;100292.34;;;7.75;100.00
19777;BME280;10047;42.490;26.012;2023-03-03T11:52:26;100294.47;;;8.07;100.00
19777;BME280;10047;42.490;26.012;2023-03-03T11:55:18;100299.81;;;7.82;100.00
19777;BME280;10047;42.490;26.012;2023-03-03T12:03:33;100250.72;;;7.97;100.00
19777;BME280;10047;42.490;26.012;2023-03-03T12:16:44;100288.00;;;8.51;100.00
19777;BME280;10047;42.490;26.012;2023-03-03T12:19:33;100288.22;;;8.35;100.00
19777;BME280;10047;42.490;26.012;2023-03-03T12:43:46;100276.00;;;8.61;100.00
19777;BME280;10047;42.490;26.012;2023-03-03T12:46:17;100274.91;;;8.75;100.00
19777;BME280;10047;42.490;26.012;2023-03-03T12:48:45;100223.28;;;8.31;100.00
19777;BME280;10047;42.490;26.012;2023-03-03T12:51:47;100268.72;;;8.41;100.00
19777;BME280;10047;42.490;26.012;2023-03-03T12:57:34;100251.81;;;8.40;100.00
19777;BME280;10047;42.490;26.012;2023-03-03T13:00:38;100271.13;;;8.49;100.00
19777;BME280;10047;42.490;26.012;2023-03-03T13:06:22;100274.97;;;8.13;100.00
19777;BME280;10047;42.490;26.012;2023-03-03T13:19:58;100251.38;;;8.11;100.00
19777;BME280;10047;42.490;26.012;2023-03-03T13:22:33;100268.22;;;8.14;100.00
19777;BME280;10047;42.490;26.012;2023-03-03T13:27:36;100269.25;;;7.99;100.00
19777;BME280;10047;42.490;26.012;2023-03-03T13:30:07;100278.31;;;8.17;100.00
19777;BME280;10047;42.490;26.012;2023-03-03T13:33:06;100272.28;;;8.27;100.00
19777;BME280;10047;42.490;26.012;2023-03-03T13:35:44;100212.03;;;7.89;100.00
19777;BME280;10047;42.490;26.012;2023-03-03T13:38:51;100264.84;;;8.13;100.00
19777;BME280;10047;42.490;26.012;2023-03-03T13:43:48;100271.84;;;7.95;100.00
19777;BME280;10047;42.490;26.012;2023-03-03T13:52:22;100220.88;;;7.56;100.00
19777;BME280;10047;42.490;26.012;2023-03-03T14:09:00;100194.72;;;7.57;100.00
19777;BME280;10047;42.490;26.012;2023-03-03T14:11:46;100264.19;;;8.02;100.00
19777;BME280;10047;42.490;26.012;2023-03-03T14:17:07;100254.19;;;7.88;100.00
19777;BME280;10047;42.490;26.012;2023-03-03T14:19:51;100193.88;;;7.58;100.00
19777;BME280;10047;42.490;26.012;2023-03-03T14:22:30;100255.91;;;7.88;100.00
19777;BME280;10047;42.490;26.012;2023-03-03T14:25:02;100204.97;;;7.48;100.00
19777;BME280;10047;42.490;26.012;2023-03-03T14:27:53;100259.09;;;8.01;100.00
19777;BME280;10047;42.490;26.012;2023-03-03T14:30:42;100233.19;;;8.44;100.00
19777;BME280;10047;42.490;26.012;2023-03-03T14:36:03;100249.94;;;7.94;100.00
19777;BME280;10047;42.490;26.012;2023-03-03T14:41:11;100196.13;;;7.79;100.00
19777;BME280;10047;42.490;26.012;2023-03-03T14:43:54;100156.09;;;7.45;100.00
19777;BME280;10047;42.490;26.012;2023-03-03T14:49:03;100219.00;;;7.72;100.00
19777;BME280;10047;42.490;26.012;2023-03-03T14:51:37;100249.06;;;7.96;100.00
19777;BME280;10047;42.490;26.012;2023-03-03T14:54:08;100239.53;;;8.69;100.00
19777;BME280;10047;42.490;26.012;2023-03-03T14:57:11;100197.38;;;7.47;100.00
19777;BME280;10047;42.490;26.012;2023-03-03T14:59:37;100252.41;;;7.28;100.00
19777;BME280;10047;42.490;26.012;2023-03-03T15:04:46;100217.91;;;7.23;100.00
19777;BME280;10047;42.490;26.012;2023-03-03T15:07:32;100265.06;;;7.27;100.00
19777;BME280;10047;42.490;26.012;2023-03-03T15:09:59;100247.78;;;7.63;100.00
19777;BME280;10047;42.490;26.012;2023-03-03T15:12:38;100257.25;;;7.46;100.00
19777;BME280;10047;42.490;26.012;2023-03-03T15:17:44;100213.91;;;7.00;100.00
19777;BME280;10047;42.490;26.012;2023-03-03T15:20:44;100261.88;;;7.03;100.00
19777;BME280;10047;42.490;26.012;2023-03-03T15:23:20;100261.66;;;7.31;100.00
19777;BME280;10047;42.490;26.012;2023-03-03T15:34:53;100251.38;;;7.44;100.00
19777;BME280;10047;42.490;26.012;2023-03-03T15:45:44;100268.31;;;7.36;100.00
19777;BME280;10047;42.490;26.012;2023-03-03T16:21:26;100295.44;;;7.22;100.00
19777;BME280;10047;42.490;26.012;2023-03-03T16:23:59;100209.22;;;6.60;100.00
19777;BME280;10047;42.490;26.012;2023-03-03T16:29:42;100307.22;;;7.25;100.00
19777;BME280;10047;42.490;26.012;2023-03-03T16:32:31;100309.84;;;7.11;100.00
19777;BME280;10047;42.490;26.012;2023-03-03T16:37:59;100309.81;;;7.16;100.00
19777;BME280;10047;42.490;26.012;2023-03-03T16:40:37;100281.28;;;7.01;100.00
19777;BME280;10047;42.490;26.012;2023-03-03T16:45:57;100293.06;;;7.07;100.00
19777;BME280;10047;42.490;26.012;2023-03-03T16:48:40;100279.66;;;6.96;100.00
19777;BME280;10047;42.490;26.012;2023-03-03T16:51:29;100324.84;;;7.31;100.00
19777;BME280;10047;42.490;26.012;2023-03-03T16:54:30;100312.28;;;7.25;100.00
19777;BME280;10047;42.490;26.012;2023-03-03T17:00:00;100335.00;;;7.28;100.00
19777;BME280;10047;42.490;26.012;2023-03-03T17:05:39;100331.44;;;7.45;100.00
19777;BME280;10047;42.490;26.012;2023-03-03T17:11:28;100288.75;;;7.17;100.00
19777;BME280;10047;42.490;26.012;2023-03-03T17:17:08;100346.56;;;7.51;100.00
19777;BME280;10047;42.490;26.012;2023-03-03T17:33:05;100359.47;;;7.23;100.00
19777;BME280;10047;42.490;26.012;2023-03-03T17:36:13;100308.38;;;6.89;100.00
19777;BME280;10047;42.490;26.012;2023-03-03T17:44:29;100305.69;;;7.09;100.00
19777;BME280;10047;42.490;26.012;2023-03-03T17:47:03;100319.19;;;7.05;100.00
19777;BME280;10047;42.490;26.012;2023-03-03T17:57:44;100368.59;;;7.37;100.00
19777;BME280;10047;42.490;26.012;2023-03-03T18:00:35;100351.97;;;7.12;100.00
19777;BME280;10047;42.490;26.012;2023-03-03T18:06:19;100319.91;;;7.16;100.00
19777;BME280;10047;42.490;26.012;2023-03-03T18:11:55;100389.72;;;7.35;100.00
19777;BME280;10047;42.490;26.012;2023-03-03T18:17:14;100397.28;;;7.36;100.00
19777;BME280;10047;42.490;26.012;2023-03-03T18:22:12;100399.75;;;7.41;100.00
19777;BME280;10047;42.490;26.012;2023-03-03T18:40:58;100414.25;;;7.27;100.00
19777;BME280;10047;42.490;26.012;2023-03-03T18:43:46;100414.19;;;7.31;100.00